sensor_id;sensor_type;location;lat;lon;timestamp;pressure;altitude;pressure_sealevel;temperature;humidity
84283;BME280;74440;52.600;21.450;2023-12-20T00:00:50;100600;;;5.53;85
84283;BME280;74440;52.600;21.450;2023-12-20T00:04:56;100700;;;5.57;84
84283;BME280;74440;52.600;21.450;2023-12-20T00:08:58;100600;;;5.62;84
84283;BME280;74440;52.600;21.450;2023-12-20T00:12:59;100600;;;5.68;84
84283;BME280;74440;52.600;21.450;2023-12-20T00:17:01;100600;;;5.51;85
84283;BME280;74440;52.600;21.450;2023-12-20T00:21:03;100600;;;5.57;85
84283;BME280;74440;52.600;21.450;2023-12-20T00:25:05;100600;;;5.60;85
84283;BME280;74440;52.600;21.450;2023-12-20T00:29:07;100600;;;5.65;85
84283;BME280;74440;52.600;21.450;2023-12-20T00:33:17;100600;;;5.69;85
84283;BME280;74440;52.600;21.450;2023-12-20T00:37:20;100600;;;5.52;85
84283;BME280;74440;52.600;21.450;2023-12-20T00:41:21;100600;;;5.58;85
84283;BME280;74440;52.600;21.450;2023-12-20T00:45:23;100600;;;5.63;85
84283;BME280;74440;52.600;21.450;2023-12-20T00:49:24;100600;;;5.71;85
84283;BME280;74440;52.600;21.450;2023-12-20T00:53:26;100600;;;5.57;85
84283;BME280;74440;52.600;21.450;2023-12-20T00:57:28;100600;;;5.62;85
84283;BME280;74440;52.600;21.450;2023-12-20T01:01:29;100600;;;5.67;85
84283;BME280;74440;52.600;21.450;2023-12-20T01:05:31;100600;;;5.75;85
84283;BME280;74440;52.600;21.450;2023-12-20T01:09:46;100600;;;5.79;85
84283;BME280;74440;52.600;21.450;2023-12-20T01:13:48;100600;;;5.64;85
84283;BME280;74440;52.600;21.450;2023-12-20T01:17:50;100600;;;5.69;85
84283;BME280;74440;52.600;21.450;2023-12-20T01:21:52;100600;;;5.77;85
84283;BME280;74440;52.600;21.450;2023-12-20T01:25:54;100600;;;5.87;85
84283;BME280;74440;52.600;21.450;2023-12-20T01:29:56;100600;;;5.70;85
84283;BME280;74440;52.600;21.450;2023-12-20T01:33:58;100600;;;5.77;85
84283;BME280;74440;52.600;21.450;2023-12-20T01:37:59;100600;;;5.81;85
84283;BME280;74440;52.600;21.450;2023-12-20T01:42:01;100600;;;5.88;85
84283;BME280;74440;52.600;21.450;2023-12-20T01:46:16;100600;;;5.93;85
84283;BME280;74440;52.600;21.450;2023-12-20T01:50:18;100600;;;5.80;85
84283;BME280;74440;52.600;21.450;2023-12-20T01:54:20;100600;;;5.84;85
84283;BME280;74440;52.600;21.450;2023-12-20T01:58:23;100600;;;5.88;85
84283;BME280;74440;52.600;21.450;2023-12-20T02:02:27;100600;;;5.95;85
84283;BME280;74440;52.600;21.450;2023-12-20T02:06:30;100600;;;5.79;85
84283;BME280;74440;52.600;21.450;2023-12-20T02:10:35;100600;;;5.84;85
84283;BME280;74440;52.600;21.450;2023-12-20T02:14:36;100600;;;5.89;85
84283;BME280;74440;52.600;21.450;2023-12-20T02:18:39;100600;;;5.97;85
84283;BME280;74440;52.600;21.450;2023-12-20T02:22:49;100600;;;6.02;85
84283;BME280;74440;52.600;21.450;2023-12-20T02:26:51;100600;;;5.83;85
84283;BME280;74440;52.600;21.450;2023-12-20T02:30:52;100600;;;5.87;85
84283;BME280;74440;52.600;21.450;2023-12-20T02:34:55;100600;;;5.90;85
84283;BME280;74440;52.600;21.450;2023-12-20T02:38:57;100600;;;5.98;85
84283;BME280;74440;52.600;21.450;2023-12-20T02:42:59;100600;;;5.84;85
84283;BME280;74440;52.600;21.450;2023-12-20T02:47:00;100600;;;5.88;85
84283;BME280;74440;52.600;21.450;2023-12-20T02:51:02;100500;;;5.93;85
84283;BME280;74440;52.600;21.450;2023-12-20T02:55:04;100500;;;6.00;85
84283;BME280;74440;52.600;21.450;2023-12-20T02:59:18;100500;;;6.03;85
84283;BME280;74440;52.600;21.450;2023-12-20T03:03:20;100500;;;5.84;85
84283;BME280;74440;52.600;21.450;2023-12-20T03:07:22;100500;;;5.89;85
84283;BME280;74440;52.600;21.450;2023-12-20T03:11:26;100500;;;5.96;85
84283;BME280;74440;52.600;21.450;2023-12-20T03:15:29;100500;;;6.03;85
84283;BME280;74440;52.600;21.450;2023-12-20T03:19:31;100500;;;5.87;85
84283;BME280;74440;52.600;21.450;2023-12-20T03:23:32;100500;;;5.88;85
84283;BME280;74440;52.600;21.450;2023-12-20T03:27:37;100500;;;5.94;85
84283;BME280;74440;52.600;21.450;2023-12-20T03:31:39;100500;;;5.98;85
84283;BME280;74440;52.600;21.450;2023-12-20T03:35:47;100500;;;6.02;85
84283;BME280;74440;52.600;21.450;2023-12-20T03:39:49;100500;;;5.84;85
84283;BME280;74440;52.600;21.450;2023-12-20T03:43:51;100500;;;5.88;85
84283;BME280;74440;52.600;21.450;2023-12-20T03:47:52;100500;;;5.90;85
84283;BME280;74440;52.600;21.450;2023-12-20T03:51:57;100500;;;5.96;85
84283;BME280;74440;52.600;21.450;2023-12-20T03:55:59;100500;;;5.76;85
84283;BME280;74440;52.600;21.450;2023-12-20T04:00:01;100500;;;5.81;85
84283;BME280;74440;52.600;21.450;2023-12-20T04:04:03;100500;;;5.85;85
84283;BME280;74440;52.600;21.450;2023-12-20T04:08:05;100500;;;5.90;85
84283;BME280;74440;52.600;21.450;2023-12-20T04:12:17;100500;;;5.92;85
84283;BME280;74440;52.600;21.450;2023-12-20T04:16:18;100500;;;5.73;85
84283;BME280;74440;52.600;21.450;2023-12-20T04:20:20;100500;;;5.75;85
84283;BME280;74440;52.600;21.450;2023-12-20T04:24:21;100500;;;5.80;85
84283;BME280;74440;52.600;21.450;2023-12-20T04:28:26;100500;;;5.88;85
84283;BME280;74440;52.600;21.450;2023-12-20T04:32:31;100500;;;5.67;85
84283;BME280;74440;52.600;21.450;2023-12-20T04:36:34;100500;;;5.70;85
84283;BME280;74440;52.600;21.450;2023-12-20T04:40:36;100500;;;5.73;85
84283;BME280;74440;52.600;21.450;2023-12-20T04:44:38;100500;;;5.79;85
84283;BME280;74440;52.600;21.450;2023-12-20T04:48:48;100500;;;5.82;85
84283;BME280;74440;52.600;21.450;2023-12-20T04:52:51;100500;;;5.66;85
84283;BME280;74440;52.600;21.450;2023-12-20T04:56:52;100500;;;5.70;85
84283;BME280;74440;52.600;21.450;2023-12-20T05:00:54;100500;;;5.74;85
84283;BME280;74440;52.600;21.450;2023-12-20T05:04:56;100500;;;5.83;85
84283;BME280;74440;52.600;21.450;2023-12-20T05:08:57;100500;;;5.63;85
84283;BME280;74440;52.600;21.450;2023-12-20T05:12:59;100500;;;5.67;85
84283;BME280;74440;52.600;21.450;2023-12-20T05:17:01;100500;;;5.70;85
84283;BME280;74440;52.600;21.450;2023-12-20T05:21:04;100500;;;5.76;85
84283;BME280;74440;52.600;21.450;2023-12-20T05:25:18;100500;;;5.80;85
84283;BME280;74440;52.600;21.450;2023-12-20T05:29:20;100500;;;5.62;85
84283;BME280;74440;52.600;21.450;2023-12-20T05:33:21;100500;;;5.64;85
84283;BME280;74440;52.600;21.450;2023-12-20T05:37:23;100500;;;5.68;85
84283;BME280;74440;52.600;21.450;2023-12-20T05:41:25;100500;;;5.80;85
84283;BME280;74440;52.600;21.450;2023-12-20T05:45:26;100500;;;5.60;85
84283;BME280;74440;52.600;21.450;2023-12-20T05:49:28;100500;;;5.65;85
84283;BME280;74440;52.600;21.450;2023-12-20T05:53:29;100500;;;5.73;85
84283;BME280;74440;52.600;21.450;2023-12-20T05:57:31;100500;;;5.83;85
84283;BME280;74440;52.600;21.450;2023-12-20T06:01:47;100500;;;5.83;85
84283;BME280;74440;52.600;21.450;2023-12-20T06:05:49;100500;;;5.65;85
84283;BME280;74440;52.600;21.450;2023-12-20T06:09:50;100500;;;5.71;85
84283;BME280;74440;52.600;21.450;2023-12-20T06:13:52;100500;;;5.76;85
84283;BME280;74440;52.600;21.450;2023-12-20T06:17:54;100500;;;5.84;85
84283;BME280;74440;52.600;21.450;2023-12-20T06:21:56;100500;;;5.66;85
84283;BME280;74440;52.600;21.450;2023-12-20T06:25:57;100500;;;5.70;85
84283;BME280;74440;52.600;21.450;2023-12-20T06:29:59;100500;;;5.76;85
84283;BME280;74440;52.600;21.450;2023-12-20T06:34:01;100500;;;5.84;85
84283;BME280;74440;52.600;21.450;2023-12-20T06:38:18;100500;;;5.89;85
84283;BME280;74440;52.600;21.450;2023-12-20T06:42:20;100500;;;5.72;85
84283;BME280;74440;52.600;21.450;2023-12-20T06:46:22;100500;;;5.77;85
84283;BME280;74440;52.600;21.450;2023-12-20T06:50:24;100500;;;5.81;85
84283;BME280;74440;52.600;21.450;2023-12-20T06:54:25;100500;;;5.88;85
84283;BME280;74440;52.600;21.450;2023-12-20T06:58:27;100500;;;5.72;85
84283;BME280;74440;52.600;21.450;2023-12-20T07:02:29;100500;;;5.78;85
84283;BME280;74440;52.600;21.450;2023-12-20T07:06:32;100500;;;5.83;85
84283;BME280;74440;52.600;21.450;2023-12-20T07:10:34;100500;;;5.90;85
84283;BME280;74440;52.600;21.450;2023-12-20T07:14:46;100500;;;5.97;85
84283;BME280;74440;52.600;21.450;2023-12-20T07:18:48;100500;;;5.82;85
84283;BME280;74440;52.600;21.450;2023-12-20T07:22:49;100500;;;5.87;85
84283;BME280;74440;52.600;21.450;2023-12-20T07:26:51;100500;;;5.94;85
84283;BME280;74440;52.600;21.450;2023-12-20T07:30:53;100500;;;6.04;85
84283;BME280;74440;52.600;21.450;2023-12-20T07:34:55;100500;;;5.88;85
84283;BME280;74440;52.600;21.450;2023-12-20T07:38:56;100500;;;5.90;85
84283;BME280;74440;52.600;21.450;2023-12-20T07:42:59;100500;;;5.95;85
84283;BME280;74440;52.600;21.450;2023-12-20T07:47:01;100500;;;6.02;85
84283;BME280;74440;52.600;21.450;2023-12-20T07:51:14;100500;;;6.07;85
84283;BME280;74440;52.600;21.450;2023-12-20T07:55:17;100500;;;5.88;85
84283;BME280;74440;52.600;21.450;2023-12-20T07:59:18;100500;;;5.95;85
84283;BME280;74440;52.600;21.450;2023-12-20T08:03:20;100500;;;5.98;85
84283;BME280;74440;52.600;21.450;2023-12-20T08:07:22;100500;;;6.07;85
84283;BME280;74440;52.600;21.450;2023-12-20T08:11:23;100500;;;5.92;85
84283;BME280;74440;52.600;21.450;2023-12-20T08:15:25;100500;;;5.98;85
84283;BME280;74440;52.600;21.450;2023-12-20T08:19:26;100500;;;6.04;85
84283;BME280;74440;52.600;21.450;2023-12-20T08:23:28;100500;;;6.13;85
84283;BME280;74440;52.600;21.450;2023-12-20T08:27:43;100500;;;6.18;85
84283;BME280;74440;52.600;21.450;2023-12-20T08:31:45;100500;;;6.04;85
84283;BME280;74440;52.600;21.450;2023-12-20T08:35:47;100500;;;6.08;85
84283;BME280;74440;52.600;21.450;2023-12-20T08:39:49;100500;;;6.14;84
84283;BME280;74440;52.600;21.450;2023-12-20T08:43:51;100500;;;6.25;84
84283;BME280;74440;52.600;21.450;2023-12-20T08:47:52;100500;;;6.11;85
84283;BME280;74440;52.600;21.450;2023-12-20T08:51:54;100500;;;6.16;84
84283;BME280;74440;52.600;21.450;2023-12-20T08:55:56;100500;;;6.21;84
84283;BME280;74440;52.600;21.450;2023-12-20T09:00:03;100400;;;6.29;84
84283;BME280;74440;52.600;21.450;2023-12-20T09:04:13;100400;;;6.35;84
84283;BME280;74440;52.600;21.450;2023-12-20T09:08:14;100400;;;6.17;84
84283;BME280;74440;52.600;21.450;2023-12-20T09:12:20;100400;;;6.22;84
84283;BME280;74440;52.600;21.450;2023-12-20T09:16:22;100400;;;6.28;84
84283;BME280;74440;52.600;21.450;2023-12-20T09:20:23;100400;;;6.36;84
84283;BME280;74440;52.600;21.450;2023-12-20T09:24:25;100400;;;6.17;84
84283;BME280;74440;52.600;21.450;2023-12-20T09:28:27;100400;;;6.23;84
84283;BME280;74440;52.600;21.450;2023-12-20T09:32:29;100400;;;6.30;84
84283;BME280;74440;52.600;21.450;2023-12-20T09:36:30;100400;;;6.36;84
84283;BME280;74440;52.600;21.450;2023-12-20T09:40:42;100400;;;6.41;84
84283;BME280;74440;52.600;21.450;2023-12-20T09:44:44;100400;;;6.22;84
84283;BME280;74440;52.600;21.450;2023-12-20T09:48:46;100400;;;6.28;84
84283;BME280;74440;52.600;21.450;2023-12-20T09:52:52;100400;;;6.33;84
84283;BME280;74440;52.600;21.450;2023-12-20T09:56:54;100400;;;6.40;84
84283;BME280;74440;52.600;21.450;2023-12-20T10:00:56;100400;;;6.25;84
84283;BME280;74440;52.600;21.450;2023-12-20T10:04:59;100400;;;6.31;84
84283;BME280;74440;52.600;21.450;2023-12-20T10:09:02;100400;;;6.35;84
84283;BME280;74440;52.600;21.450;2023-12-20T10:13:10;100400;;;6.42;84
84283;BME280;74440;52.600;21.450;2023-12-20T10:17:12;100400;;;6.48;84
84283;BME280;74440;52.600;21.450;2023-12-20T10:21:14;100400;;;6.32;84
84283;BME280;74440;52.600;21.450;2023-12-20T10:25:16;100400;;;6.33;84
84283;BME280;74440;52.600;21.450;2023-12-20T10:29:18;100400;;;6.39;84
84283;BME280;74440;52.600;21.450;2023-12-20T10:33:25;100400;;;6.47;84
84283;BME280;74440;52.600;21.450;2023-12-20T10:37:44;100400;;;6.48;84
84283;BME280;74440;52.600;21.450;2023-12-20T10:41:45;100400;;;6.34;84
84283;BME280;74440;52.600;21.450;2023-12-20T10:45:48;100400;;;6.36;84
84283;BME280;74440;52.600;21.450;2023-12-20T10:49:50;100400;;;6.45;84
84283;BME280;74440;52.600;21.450;2023-12-20T10:53:54;100400;;;6.55;84
84283;BME280;74440;52.600;21.450;2023-12-20T10:58:01;100400;;;6.37;84
84283;BME280;74440;52.600;21.450;2023-12-20T11:02:04;100400;;;6.41;84
84283;BME280;74440;52.600;21.450;2023-12-20T11:10:39;100400;;;6.56;84
84283;BME280;74440;52.600;21.450;2023-12-20T11:14:45;100300;;;6.61;84
84283;BME280;74440;52.600;21.450;2023-12-20T11:18:51;100300;;;6.66;84
84283;BME280;74440;52.600;21.450;2023-12-20T11:22:54;100300;;;6.55;84
84283;BME280;74440;52.600;21.450;2023-12-20T11:26:57;100300;;;6.61;84
84283;BME280;74440;52.600;21.450;2023-12-20T11:31:01;100300;;;6.66;83
84283;BME280;74440;52.600;21.450;2023-12-20T11:39:22;100300;;;6.71;83
84283;BME280;74440;52.600;21.450;2023-12-20T11:47:37;100300;;;6.63;83
84283;BME280;74440;52.600;21.450;2023-12-20T11:51:42;100300;;;6.68;83
84283;BME280;74440;52.600;21.450;2023-12-20T11:55:48;100300;;;6.77;82
84283;BME280;74440;52.600;21.450;2023-12-20T11:59:54;100300;;;6.90;82
84283;BME280;74440;52.600;21.450;2023-12-20T12:04:04;100300;;;6.83;82
84283;BME280;74440;52.600;21.450;2023-12-20T12:08:07;100300;;;6.88;82
84283;BME280;74440;52.600;21.450;2023-12-20T12:12:09;100300;;;6.85;81
84283;BME280;74440;52.600;21.450;2023-12-20T12:16:11;100300;;;6.86;81
84283;BME280;74440;52.600;21.450;2023-12-20T12:20:25;100300;;;6.84;81
84283;BME280;74440;52.600;21.450;2023-12-20T12:24:27;100300;;;6.66;81
84283;BME280;74440;52.600;21.450;2023-12-20T12:28:29;100300;;;6.67;81
84283;BME280;74440;52.600;21.450;2023-12-20T12:32:33;100300;;;6.70;81
84283;BME280;74440;52.600;21.450;2023-12-20T12:36:35;100300;;;6.80;81
84283;BME280;74440;52.600;21.450;2023-12-20T12:40:36;100300;;;6.64;81
84283;BME280;74440;52.600;21.450;2023-12-20T12:44:38;100200;;;6.68;81
84283;BME280;74440;52.600;21.450;2023-12-20T12:48:39;100300;;;6.71;81
84283;BME280;74440;52.600;21.450;2023-12-20T12:52:41;100300;;;6.75;80
84283;BME280;74440;52.600;21.450;2023-12-20T12:56:54;100300;;;6.78;81
84283;BME280;74440;52.600;21.450;2023-12-20T13:00:56;100300;;;6.62;80
84283;BME280;74440;52.600;21.450;2023-12-20T13:04:58;100200;;;6.63;80
84283;BME280;74440;52.600;21.450;2023-12-20T13:09:01;100200;;;6.64;80
84283;BME280;74440;52.600;21.450;2023-12-20T13:13:03;100200;;;6.69;79
84283;BME280;74440;52.600;21.450;2023-12-20T13:17:05;100200;;;6.48;80
84283;BME280;74440;52.600;21.450;2023-12-20T13:21:07;100200;;;6.46;80
84283;BME280;74440;52.600;21.450;2023-12-20T13:25:08;100200;;;6.47;80
84283;BME280;74440;52.600;21.450;2023-12-20T13:29:10;100300;;;6.49;79
84283;BME280;74440;52.600;21.450;2023-12-20T13:33:23;100300;;;6.47;79
84283;BME280;74440;52.600;21.450;2023-12-20T13:37:25;100300;;;6.24;79
84283;BME280;74440;52.600;21.450;2023-12-20T13:41:27;100300;;;6.23;79
84283;BME280;74440;52.600;21.450;2023-12-20T13:45:28;100300;;;6.23;78
84283;BME280;74440;52.600;21.450;2023-12-20T13:49:29;100200;;;6.29;77
84283;BME280;74440;52.600;21.450;2023-12-20T13:53:31;100200;;;6.02;77
84283;BME280;74440;52.600;21.450;2023-12-20T13:57:33;100200;;;5.99;77
84283;BME280;74440;52.600;21.450;2023-12-20T14:01:38;100200;;;5.98;77
84283;BME280;74440;52.600;21.450;2023-12-20T14:05:39;100200;;;6.01;76
84283;BME280;74440;52.600;21.450;2023-12-20T14:09:53;100200;;;5.93;76
84283;BME280;74440;52.600;21.450;2023-12-20T14:13:54;100200;;;5.67;77
84283;BME280;74440;52.600;21.450;2023-12-20T14:17:59;100200;;;5.61;76
84283;BME280;74440;52.600;21.450;2023-12-20T14:22:01;100200;;;5.57;76
84283;BME280;74440;52.600;21.450;2023-12-20T14:26:04;100300;;;5.59;77
84283;BME280;74440;52.600;21.450;2023-12-20T14:30:06;100300;;;5.35;77
84283;BME280;74440;52.600;21.450;2023-12-20T14:34:08;100300;;;5.32;77
84283;BME280;74440;52.600;21.450;2023-12-20T14:38:10;100300;;;5.30;77
84283;BME280;74440;52.600;21.450;2023-12-20T14:42:13;100300;;;5.31;77
84283;BME280;74440;52.600;21.450;2023-12-20T14:48:53;100300;;;5.16;78
84283;BME280;74440;52.600;21.450;2023-12-20T14:52:55;100300;;;5.22;78
84283;BME280;74440;52.600;21.450;2023-12-20T14:56:58;100200;;;5.26;78
84283;BME280;74440;52.600;21.450;2023-12-20T15:01:00;100200;;;5.34;77
84283;BME280;74440;52.600;21.450;2023-12-20T15:05:02;100300;;;5.13;78
84283;BME280;74440;52.600;21.450;2023-12-20T15:09:04;100200;;;5.17;78
84283;BME280;74440;52.600;21.450;2023-12-20T15:13:10;100200;;;5.19;78
84283;BME280;74440;52.600;21.450;2023-12-20T15:17:13;100200;;;5.24;78
84283;BME280;74440;52.600;21.450;2023-12-20T15:21:23;100200;;;5.22;78
84283;BME280;74440;52.600;21.450;2023-12-20T15:25:34;100200;;;5.02;79
84283;BME280;74440;52.600;21.450;2023-12-20T15:29:37;100200;;;5.03;79
84283;BME280;74440;52.600;21.450;2023-12-20T15:33:42;100200;;;5.08;79
84283;BME280;74440;52.600;21.450;2023-12-20T15:37:43;100200;;;5.12;79
84283;BME280;74440;52.600;21.450;2023-12-20T15:41:54;100200;;;5.11;80
84283;BME280;74440;52.600;21.450;2023-12-20T15:45:56;100200;;;4.91;80
84283;BME280;74440;52.600;21.450;2023-12-20T15:49:57;100200;;;4.90;80
84283;BME280;74440;52.600;21.450;2023-12-20T15:53:59;100200;;;4.92;80
84283;BME280;74440;52.600;21.450;2023-12-20T15:58:07;100200;;;4.97;80
84283;BME280;74440;52.600;21.450;2023-12-20T16:02:26;100200;;;4.97;81
84283;BME280;74440;52.600;21.450;2023-12-20T16:06:27;100200;;;4.79;81
84283;BME280;74440;52.600;21.450;2023-12-20T16:10:29;100200;;;4.80;81
84283;BME280;74440;52.600;21.450;2023-12-20T16:14:31;100200;;;4.82;81
84283;BME280;74440;52.600;21.450;2023-12-20T16:18:32;100200;;;4.89;81
84283;BME280;74440;52.600;21.450;2023-12-20T16:22:39;100200;;;4.72;81
84283;BME280;74440;52.600;21.450;2023-12-20T16:26:41;100200;;;4.76;81
84283;BME280;74440;52.600;21.450;2023-12-20T16:30:43;100200;;;4.82;81
84283;BME280;74440;52.600;21.450;2023-12-20T16:34:44;100200;;;4.91;81
84283;BME280;74440;52.600;21.450;2023-12-20T16:38:56;100200;;;4.93;80
84283;BME280;74440;52.600;21.450;2023-12-20T16:42:57;100200;;;4.73;80
84283;BME280;74440;52.600;21.450;2023-12-20T16:46:59;100200;;;4.78;80
84283;BME280;74440;52.600;21.450;2023-12-20T16:51:01;100200;;;4.85;80
84283;BME280;74440;52.600;21.450;2023-12-20T16:55:08;100200;;;4.95;79
84283;BME280;74440;52.600;21.450;2023-12-20T16:59:10;100200;;;4.77;80
84283;BME280;74440;52.600;21.450;2023-12-20T17:03:12;100200;;;4.72;80
84283;BME280;74440;52.600;21.450;2023-12-20T17:07:13;100100;;;4.73;80
84283;BME280;74440;52.600;21.450;2023-12-20T17:11:15;100200;;;4.80;79
84283;BME280;74440;52.600;21.450;2023-12-20T17:15:26;100200;;;4.84;79
84283;BME280;74440;52.600;21.450;2023-12-20T17:19:28;100200;;;4.67;79
84283;BME280;74440;52.600;21.450;2023-12-20T17:23:33;100200;;;4.71;79
84283;BME280;74440;52.600;21.450;2023-12-20T17:27:35;100100;;;4.76;79
84283;BME280;74440;52.600;21.450;2023-12-20T17:31:37;100200;;;4.83;79
84283;BME280;74440;52.600;21.450;2023-12-20T17:35:39;100100;;;4.68;79
84283;BME280;74440;52.600;21.450;2023-12-20T17:39:41;100100;;;4.69;79
84283;BME280;74440;52.600;21.450;2023-12-20T17:43:44;100100;;;4.74;78
84283;BME280;74440;52.600;21.450;2023-12-20T17:47:45;100100;;;4.83;78
84283;BME280;74440;52.600;21.450;2023-12-20T17:56:01;100100;;;4.72;78
84283;BME280;74440;52.600;21.450;2023-12-20T18:00:12;100100;;;4.78;78
84283;BME280;74440;52.600;21.450;2023-12-20T18:04:15;100100;;;4.82;78
84283;BME280;74440;52.600;21.450;2023-12-20T18:08:21;100100;;;4.87;78
84283;BME280;74440;52.600;21.450;2023-12-20T18:12:27;100100;;;4.85;78
84283;BME280;74440;52.600;21.450;2023-12-20T18:16:29;100100;;;4.66;78
84283;BME280;74440;52.600;21.450;2023-12-20T18:20:30;100100;;;4.64;78
84283;BME280;74440;52.600;21.450;2023-12-20T18:24:32;100100;;;4.65;78
84283;BME280;74440;52.600;21.450;2023-12-20T18:28:33;100100;;;4.73;78
84283;BME280;74440;52.600;21.450;2023-12-20T18:32:35;100100;;;4.60;78
84283;BME280;74440;52.600;21.450;2023-12-20T18:36:37;100100;;;4.65;79
84283;BME280;74440;52.600;21.450;2023-12-20T18:40:39;100100;;;4.71;79
84283;BME280;74440;52.600;21.450;2023-12-20T18:44:45;100100;;;4.73;79
84283;BME280;74440;52.600;21.450;2023-12-20T18:48:57;100100;;;4.74;79
84283;BME280;74440;52.600;21.450;2023-12-20T18:52:58;100100;;;4.55;79
84283;BME280;74440;52.600;21.450;2023-12-20T18:57:03;100100;;;4.56;80
84283;BME280;74440;52.600;21.450;2023-12-20T19:01:10;100100;;;4.58;80
84283;BME280;74440;52.600;21.450;2023-12-20T19:05:12;100100;;;4.62;80
84283;BME280;74440;52.600;21.450;2023-12-20T19:09:28;100000;;;4.64;80
84283;BME280;74440;52.600;21.450;2023-12-20T19:13:31;100100;;;4.47;80
84283;BME280;74440;52.600;21.450;2023-12-20T19:17:32;100000;;;4.50;80
84283;BME280;74440;52.600;21.450;2023-12-20T19:21:34;100100;;;4.52;80
84283;BME280;74440;52.600;21.450;2023-12-20T19:25:36;100100;;;4.57;80
84283;BME280;74440;52.600;21.450;2023-12-20T19:29:37;100000;;;4.44;81
84283;BME280;74440;52.600;21.450;2023-12-20T19:33:39;100100;;;4.45;81
84283;BME280;74440;52.600;21.450;2023-12-20T19:37:41;100100;;;4.48;81
84283;BME280;74440;52.600;21.450;2023-12-20T19:41:44;100100;;;4.57;81
84283;BME280;74440;52.600;21.450;2023-12-20T19:45:58;100100;;;4.64;81
84283;BME280;74440;52.600;21.450;2023-12-20T19:49:59;100100;;;4.49;81
84283;BME280;74440;52.600;21.450;2023-12-20T19:54:01;100100;;;4.52;81
84283;BME280;74440;52.600;21.450;2023-12-20T19:58:03;100100;;;4.56;81
84283;BME280;74440;52.600;21.450;2023-12-20T20:02:06;100100;;;4.64;81
84283;BME280;74440;52.600;21.450;2023-12-20T20:06:08;100100;;;4.49;81
84283;BME280;74440;52.600;21.450;2023-12-20T20:10:09;100100;;;4.54;81
84283;BME280;74440;52.600;21.450;2023-12-20T20:14:11;100100;;;4.60;80
84283;BME280;74440;52.600;21.450;2023-12-20T20:18:13;100100;;;4.67;80
84283;BME280;74440;52.600;21.450;2023-12-20T20:22:27;100100;;;4.72;79
84283;BME280;74440;52.600;21.450;2023-12-20T20:26:28;100100;;;4.56;80
84283;BME280;74440;52.600;21.450;2023-12-20T20:30:30;100100;;;4.59;80
84283;BME280;74440;52.600;21.450;2023-12-20T20:34:31;100100;;;4.65;79
84283;BME280;74440;52.600;21.450;2023-12-20T20:38:33;100100;;;4.98;79
84283;BME280;74440;52.600;21.450;2023-12-20T20:42:35;100100;;;4.78;78
84283;BME280;74440;52.600;21.450;2023-12-20T20:46:36;100100;;;4.73;78
84283;BME280;74440;52.600;21.450;2023-12-20T20:50:38;100100;;;4.72;78
84283;BME280;74440;52.600;21.450;2023-12-20T20:54:39;100100;;;4.71;79
84283;BME280;74440;52.600;21.450;2023-12-20T20:58:56;100100;;;4.61;79
84283;BME280;74440;52.600;21.450;2023-12-20T21:02:59;100100;;;4.29;79
84283;BME280;74440;52.600;21.450;2023-12-20T21:07:01;100100;;;4.20;79
84283;BME280;74440;52.600;21.450;2023-12-20T21:11:03;100100;;;4.21;79
84283;BME280;74440;52.600;21.450;2023-12-20T21:15:05;100100;;;4.26;78
84283;BME280;74440;52.600;21.450;2023-12-20T21:19:07;100100;;;4.04;78
84283;BME280;74440;52.600;21.450;2023-12-20T21:23:08;100100;;;3.97;78
84283;BME280;74440;52.600;21.450;2023-12-20T21:27:10;100100;;;3.89;77
84283;BME280;74440;52.600;21.450;2023-12-20T21:31:11;100100;;;3.85;77
84283;BME280;74440;52.600;21.450;2023-12-20T21:35:26;100100;;;3.80;77
84283;BME280;74440;52.600;21.450;2023-12-20T21:39:27;100100;;;3.58;77
84283;BME280;74440;52.600;21.450;2023-12-20T21:43:30;100100;;;3.66;77
84283;BME280;74440;52.600;21.450;2023-12-20T21:47:32;100100;;;3.80;78
84283;BME280;74440;52.600;21.450;2023-12-20T21:51:33;100100;;;3.96;76
84283;BME280;74440;52.600;21.450;2023-12-20T21:55:35;100100;;;3.90;78
84283;BME280;74440;52.600;21.450;2023-12-20T21:59:40;100100;;;4.01;76
84283;BME280;74440;52.600;21.450;2023-12-20T22:03:41;100100;;;4.02;76
84283;BME280;74440;52.600;21.450;2023-12-20T22:07:43;100100;;;4.03;75
84283;BME280;74440;52.600;21.450;2023-12-20T22:11:55;100100;;;4.03;76
84283;BME280;74440;52.600;21.450;2023-12-20T22:15:57;100100;;;3.78;77
84283;BME280;74440;52.600;21.450;2023-12-20T22:19:58;100100;;;3.73;77
84283;BME280;74440;52.600;21.450;2023-12-20T22:24:00;100100;;;3.75;77
84283;BME280;74440;52.600;21.450;2023-12-20T22:28:01;100100;;;3.83;77
84283;BME280;74440;52.600;21.450;2023-12-20T22:32:03;100100;;;3.63;78
84283;BME280;74440;52.600;21.450;2023-12-20T22:36:10;100100;;;3.67;78
84283;BME280;74440;52.600;21.450;2023-12-20T22:40:13;100100;;;3.69;78
84283;BME280;74440;52.600;21.450;2023-12-20T22:44:16;100100;;;3.75;78
84283;BME280;74440;52.600;21.450;2023-12-20T22:48:24;100100;;;3.80;78
84283;BME280;74440;52.600;21.450;2023-12-20T22:52:26;100100;;;3.61;78
84283;BME280;74440;52.600;21.450;2023-12-20T22:56:28;100100;;;3.66;77
84283;BME280;74440;52.600;21.450;2023-12-20T23:00:29;100100;;;3.67;77
84283;BME280;74440;52.600;21.450;2023-12-20T23:04:31;100100;;;3.73;77
84283;BME280;74440;52.600;21.450;2023-12-20T23:08:38;100100;;;3.54;77
84283;BME280;74440;52.600;21.450;2023-12-20T23:12:39;100100;;;3.56;77
84283;BME280;74440;52.600;21.450;2023-12-20T23:16:41;100100;;;3.61;77
84283;BME280;74440;52.600;21.450;2023-12-20T23:20:42;100100;;;3.68;76